sensor_id;sensor_type;location;lat;lon;timestamp;P1;durP1;ratioP1;P2;durP2;ratioP2
9830;SDS011;4954;48.476;8.168;2024-02-21T00:00:30;43.43;;;31.77;;
9830;SDS011;4954;48.476;8.168;2024-02-21T00:02:58;33.73;;;28.90;;
9830;SDS011;4954;48.476;8.168;2024-02-21T00:05:27;40.23;;;31.30;;
9830;SDS011;4954;48.476;8.168;2024-02-21T00:07:54;41.93;;;32.67;;
9830;SDS011;4954;48.476;8.168;2024-02-21T00:10:21;42.17;;;30.83;;
9830;SDS011;4954;48.476;8.168;2024-02-21T00:12:47;43.07;;;32.30;;
9830;SDS011;4954;48.476;8.168;2024-02-21T00:15:14;42.63;;;31.83;;
9830;SDS011;4954;48.476;8.168;2024-02-21T00:17:42;43.53;;;31.80;;
9830;SDS011;4954;48.476;8.168;2024-02-21T00:20:11;41.90;;;30.40;;
9830;SDS011;4954;48.476;8.168;2024-02-21T00:22:38;42.60;;;31.13;;
9830;SDS011;4954;48.476;8.168;2024-02-21T00:25:06;42.00;;;31.70;;
9830;SDS011;4954;48.476;8.168;2024-02-21T00:27:33;42.47;;;31.60;;
9830;SDS011;4954;48.476;8.168;2024-02-21T00:30:00;35.83;;;30.70;;
9830;SDS011;4954;48.476;8.168;2024-02-21T00:32:27;36.60;;;29.60;;
9830;SDS011;4954;48.476;8.168;2024-02-21T00:34:54;40.77;;;31.33;;
9830;SDS011;4954;48.476;8.168;2024-02-21T00:37:22;45.43;;;30.60;;
9830;SDS011;4954;48.476;8.168;2024-02-21T00:39:49;39.40;;;31.00;;
9830;SDS011;4954;48.476;8.168;2024-02-21T00:42:16;40.30;;;30.57;;
9830;SDS011;4954;48.476;8.168;2024-02-21T00:44:43;43.23;;;31.27;;
9830;SDS011;4954;48.476;8.168;2024-02-21T00:47:10;46.03;;;32.43;;
9830;SDS011;4954;48.476;8.168;2024-02-21T00:49:37;49.03;;;32.93;;
9830;SDS011;4954;48.476;8.168;2024-02-21T00:52:04;44.47;;;32.07;;
9830;SDS011;4954;48.476;8.168;2024-02-21T00:54:32;49.77;;;33.07;;
9830;SDS011;4954;48.476;8.168;2024-02-21T00:56:59;54.00;;;34.13;;
9830;SDS011;4954;48.476;8.168;2024-02-21T00:59:26;50.67;;;32.90;;
9830;SDS011;4954;48.476;8.168;2024-02-21T01:01:53;47.87;;;32.97;;
9830;SDS011;4954;48.476;8.168;2024-02-21T01:04:20;45.23;;;31.63;;
9830;SDS011;4954;48.476;8.168;2024-02-21T01:06:46;42.30;;;31.77;;
9830;SDS011;4954;48.476;8.168;2024-02-21T01:09:13;39.93;;;30.50;;
9830;SDS011;4954;48.476;8.168;2024-02-21T01:11:41;42.03;;;31.13;;
9830;SDS011;4954;48.476;8.168;2024-02-21T01:14:08;46.83;;;31.83;;
9830;SDS011;4954;48.476;8.168;2024-02-21T01:16:36;43.10;;;31.67;;
9830;SDS011;4954;48.476;8.168;2024-02-21T01:19:03;42.67;;;30.20;;
9830;SDS011;4954;48.476;8.168;2024-02-21T01:21:29;45.80;;;32.43;;
9830;SDS011;4954;48.476;8.168;2024-02-21T01:23:56;48.53;;;32.77;;
9830;SDS011;4954;48.476;8.168;2024-02-21T01:26:23;37.27;;;29.53;;
9830;SDS011;4954;48.476;8.168;2024-02-21T01:28:51;40.23;;;30.77;;
9830;SDS011;4954;48.476;8.168;2024-02-21T01:31:18;34.20;;;29.70;;
9830;SDS011;4954;48.476;8.168;2024-02-21T01:33:45;40.10;;;30.23;;
9830;SDS011;4954;48.476;8.168;2024-02-21T01:36:13;43.53;;;32.00;;
9830;SDS011;4954;48.476;8.168;2024-02-21T01:38:40;41.70;;;31.20;;
9830;SDS011;4954;48.476;8.168;2024-02-21T01:41:07;47.03;;;32.20;;
9830;SDS011;4954;48.476;8.168;2024-02-21T01:43:34;37.70;;;29.93;;
9830;SDS011;4954;48.476;8.168;2024-02-21T01:46:02;42.07;;;31.53;;
9830;SDS011;4954;48.476;8.168;2024-02-21T01:48:29;41.03;;;30.47;;
9830;SDS011;4954;48.476;8.168;2024-02-21T01:50:56;37.13;;;30.27;;
9830;SDS011;4954;48.476;8.168;2024-02-21T01:53:25;35.20;;;29.77;;
9830;SDS011;4954;48.476;8.168;2024-02-21T01:55:59;37.40;;;29.97;;
9830;SDS011;4954;48.476;8.168;2024-02-21T01:58:26;35.80;;;29.67;;
9830;SDS011;4954;48.476;8.168;2024-02-21T02:00:56;40.13;;;35.60;;
9830;SDS011;4954;48.476;8.168;2024-02-21T02:03:27;36.17;;;29.93;;
9830;SDS011;4954;48.476;8.168;2024-02-21T02:05:55;36.43;;;30.43;;
9830;SDS011;4954;48.476;8.168;2024-02-21T02:08:22;40.93;;;30.30;;
9830;SDS011;4954;48.476;8.168;2024-02-21T02:10:49;38.43;;;30.63;;
9830;SDS011;4954;48.476;8.168;2024-02-21T02:13:16;36.00;;;29.73;;
9830;SDS011;4954;48.476;8.168;2024-02-21T02:15:44;40.73;;;30.30;;
9830;SDS011;4954;48.476;8.168;2024-02-21T02:18:13;48.33;;;31.77;;
9830;SDS011;4954;48.476;8.168;2024-02-21T02:20:43;39.63;;;31.27;;
9830;SDS011;4954;48.476;8.168;2024-02-21T02:25:46;38.33;;;29.83;;
9830;SDS011;4954;48.476;8.168;2024-02-21T02:28:16;33.07;;;29.47;;
9830;SDS011;4954;48.476;8.168;2024-02-21T02:30:43;41.90;;;31.13;;
9830;SDS011;4954;48.476;8.168;2024-02-21T02:33:10;34.50;;;30.10;;
9830;SDS011;4954;48.476;8.168;2024-02-21T02:35:38;39.10;;;30.43;;
9830;SDS011;4954;48.476;8.168;2024-02-21T02:38:05;38.40;;;31.07;;
9830;SDS011;4954;48.476;8.168;2024-02-21T02:40:34;38.90;;;30.53;;
9830;SDS011;4954;48.476;8.168;2024-02-21T02:43:02;39.27;;;30.63;;
9830;SDS011;4954;48.476;8.168;2024-02-21T02:45:29;34.67;;;29.23;;
9830;SDS011;4954;48.476;8.168;2024-02-21T02:47:56;38.53;;;30.67;;
9830;SDS011;4954;48.476;8.168;2024-02-21T02:50:23;33.80;;;30.03;;
9830;SDS011;4954;48.476;8.168;2024-02-21T02:52:51;37.03;;;31.20;;
9830;SDS011;4954;48.476;8.168;2024-02-21T03:02:30;35.97;;;30.07;;
9830;SDS011;4954;48.476;8.168;2024-02-21T03:04:57;37.13;;;30.40;;
9830;SDS011;4954;48.476;8.168;2024-02-21T03:07:24;37.50;;;31.10;;
9830;SDS011;4954;48.476;8.168;2024-02-21T03:09:52;44.70;;;31.70;;
9830;SDS011;4954;48.476;8.168;2024-02-21T03:12:19;41.93;;;30.13;;
9830;SDS011;4954;48.476;8.168;2024-02-21T03:14:52;38.07;;;31.03;;
9830;SDS011;4954;48.476;8.168;2024-02-21T03:17:20;46.30;;;33.70;;
9830;SDS011;4954;48.476;8.168;2024-02-21T03:19:48;36.50;;;31.67;;
9830;SDS011;4954;48.476;8.168;2024-02-21T03:22:15;39.40;;;31.17;;
9830;SDS011;4954;48.476;8.168;2024-02-21T03:24:43;37.90;;;30.63;;
9830;SDS011;4954;48.476;8.168;2024-02-21T03:27:10;39.30;;;31.60;;
9830;SDS011;4954;48.476;8.168;2024-02-21T03:29:37;41.20;;;31.60;;
9830;SDS011;4954;48.476;8.168;2024-02-21T03:32:04;41.27;;;32.87;;
9830;SDS011;4954;48.476;8.168;2024-02-21T03:34:31;48.33;;;33.20;;
9830;SDS011;4954;48.476;8.168;2024-02-21T03:37:00;37.57;;;30.80;;
9830;SDS011;4954;48.476;8.168;2024-02-21T03:39:30;36.77;;;30.13;;
9830;SDS011;4954;48.476;8.168;2024-02-21T03:41:58;36.70;;;30.87;;
9830;SDS011;4954;48.476;8.168;2024-02-21T03:44:29;38.30;;;31.93;;
9830;SDS011;4954;48.476;8.168;2024-02-21T03:46:56;40.90;;;31.10;;
9830;SDS011;4954;48.476;8.168;2024-02-21T03:49:23;35.00;;;29.87;;
9830;SDS011;4954;48.476;8.168;2024-02-21T03:51:50;36.10;;;29.77;;
9830;SDS011;4954;48.476;8.168;2024-02-21T03:54:19;43.73;;;31.40;;
9830;SDS011;4954;48.476;8.168;2024-02-21T03:56:45;38.73;;;30.60;;
9830;SDS011;4954;48.476;8.168;2024-02-21T03:59:14;34.50;;;29.80;;
9830;SDS011;4954;48.476;8.168;2024-02-21T04:01:41;39.93;;;30.57;;
9830;SDS011;4954;48.476;8.168;2024-02-21T04:04:07;40.27;;;30.97;;
9830;SDS011;4954;48.476;8.168;2024-02-21T04:06:34;38.50;;;30.13;;
9830;SDS011;4954;48.476;8.168;2024-02-21T04:09:02;40.30;;;30.63;;
9830;SDS011;4954;48.476;8.168;2024-02-21T04:11:31;37.77;;;29.97;;
9830;SDS011;4954;48.476;8.168;2024-02-21T04:13:57;40.67;;;30.83;;
9830;SDS011;4954;48.476;8.168;2024-02-21T04:16:24;35.60;;;29.80;;
9830;SDS011;4954;48.476;8.168;2024-02-21T04:18:51;38.87;;;29.80;;
9830;SDS011;4954;48.476;8.168;2024-02-21T04:21:18;32.13;;;28.73;;
9830;SDS011;4954;48.476;8.168;2024-02-21T04:23:45;36.23;;;29.93;;
9830;SDS011;4954;48.476;8.168;2024-02-21T04:26:12;37.90;;;30.73;;
9830;SDS011;4954;48.476;8.168;2024-02-21T04:28:40;39.63;;;30.87;;
9830;SDS011;4954;48.476;8.168;2024-02-21T04:31:07;42.07;;;31.73;;
9830;SDS011;4954;48.476;8.168;2024-02-21T04:33:33;39.40;;;31.10;;
9830;SDS011;4954;48.476;8.168;2024-02-21T04:36:00;38.77;;;30.87;;
9830;SDS011;4954;48.476;8.168;2024-02-21T04:38:27;34.80;;;29.67;;
9830;SDS011;4954;48.476;8.168;2024-02-21T04:40:54;43.50;;;30.57;;
9830;SDS011;4954;48.476;8.168;2024-02-21T04:43:23;37.10;;;30.03;;
9830;SDS011;4954;48.476;8.168;2024-02-21T04:45:52;31.17;;;28.07;;
9830;SDS011;4954;48.476;8.168;2024-02-21T04:48:19;33.73;;;29.67;;
9830;SDS011;4954;48.476;8.168;2024-02-21T04:50:46;38.27;;;30.40;;
9830;SDS011;4954;48.476;8.168;2024-02-21T04:53:13;42.17;;;32.20;;
9830;SDS011;4954;48.476;8.168;2024-02-21T04:55:39;34.20;;;29.27;;
9830;SDS011;4954;48.476;8.168;2024-02-21T04:58:06;33.10;;;29.53;;
9830;SDS011;4954;48.476;8.168;2024-02-21T05:00:33;40.63;;;30.53;;
9830;SDS011;4954;48.476;8.168;2024-02-21T05:03:02;40.07;;;29.90;;
9830;SDS011;4954;48.476;8.168;2024-02-21T05:05:29;38.03;;;29.93;;
9830;SDS011;4954;48.476;8.168;2024-02-21T05:07:56;40.17;;;30.90;;
9830;SDS011;4954;48.476;8.168;2024-02-21T05:10:23;34.90;;;29.80;;
9830;SDS011;4954;48.476;8.168;2024-02-21T05:12:50;36.80;;;29.47;;
9830;SDS011;4954;48.476;8.168;2024-02-21T05:15:17;34.20;;;29.57;;
9830;SDS011;4954;48.476;8.168;2024-02-21T05:17:44;31.40;;;27.80;;
9830;SDS011;4954;48.476;8.168;2024-02-21T05:20:12;34.40;;;30.13;;
9830;SDS011;4954;48.476;8.168;2024-02-21T05:22:39;37.23;;;30.13;;
9830;SDS011;4954;48.476;8.168;2024-02-21T05:25:07;35.40;;;29.63;;
9830;SDS011;4954;48.476;8.168;2024-02-21T05:27:34;38.07;;;30.83;;
9830;SDS011;4954;48.476;8.168;2024-02-21T05:30:04;42.33;;;31.87;;
9830;SDS011;4954;48.476;8.168;2024-02-21T05:32:32;42.43;;;32.40;;
9830;SDS011;4954;48.476;8.168;2024-02-21T05:34:59;43.33;;;32.03;;
9830;SDS011;4954;48.476;8.168;2024-02-21T05:37:28;32.50;;;29.03;;
9830;SDS011;4954;48.476;8.168;2024-02-21T05:39:54;42.30;;;31.77;;
9830;SDS011;4954;48.476;8.168;2024-02-21T05:42:21;31.80;;;28.40;;
9830;SDS011;4954;48.476;8.168;2024-02-21T05:44:48;32.63;;;29.20;;
9830;SDS011;4954;48.476;8.168;2024-02-21T05:47:15;41.03;;;30.23;;
9830;SDS011;4954;48.476;8.168;2024-02-21T05:49:42;53.47;;;32.87;;
9830;SDS011;4954;48.476;8.168;2024-02-21T05:52:09;50.47;;;33.47;;
9830;SDS011;4954;48.476;8.168;2024-02-21T05:54:38;33.17;;;29.43;;
9830;SDS011;4954;48.476;8.168;2024-02-21T05:57:08;36.50;;;30.73;;
9830;SDS011;4954;48.476;8.168;2024-02-21T05:59:35;37.77;;;29.77;;
9830;SDS011;4954;48.476;8.168;2024-02-21T06:02:05;37.93;;;30.37;;
9830;SDS011;4954;48.476;8.168;2024-02-21T06:04:32;36.57;;;29.23;;
9830;SDS011;4954;48.476;8.168;2024-02-21T06:06:59;32.63;;;29.03;;
9830;SDS011;4954;48.476;8.168;2024-02-21T06:09:26;37.00;;;29.73;;
9830;SDS011;4954;48.476;8.168;2024-02-21T06:11:55;37.20;;;30.33;;
9830;SDS011;4954;48.476;8.168;2024-02-21T06:14:22;46.70;;;32.53;;
9830;SDS011;4954;48.476;8.168;2024-02-21T06:16:49;39.10;;;31.93;;
9830;SDS011;4954;48.476;8.168;2024-02-21T06:19:16;37.87;;;30.63;;
9830;SDS011;4954;48.476;8.168;2024-02-21T06:21:43;36.33;;;30.87;;
9830;SDS011;4954;48.476;8.168;2024-02-21T06:24:10;37.70;;;30.93;;
9830;SDS011;4954;48.476;8.168;2024-02-21T06:26:37;32.97;;;29.50;;
9830;SDS011;4954;48.476;8.168;2024-02-21T06:29:06;37.43;;;30.10;;
9830;SDS011;4954;48.476;8.168;2024-02-21T06:31:34;32.03;;;27.60;;
9830;SDS011;4954;48.476;8.168;2024-02-21T06:34:01;35.80;;;29.53;;
9830;SDS011;4954;48.476;8.168;2024-02-21T06:36:29;35.03;;;29.60;;
9830;SDS011;4954;48.476;8.168;2024-02-21T06:38:56;38.47;;;29.77;;
9830;SDS011;4954;48.476;8.168;2024-02-21T06:41:23;39.90;;;30.43;;
9830;SDS011;4954;48.476;8.168;2024-02-21T06:43:50;35.67;;;30.53;;
9830;SDS011;4954;48.476;8.168;2024-02-21T06:46:25;32.73;;;29.13;;
9830;SDS011;4954;48.476;8.168;2024-02-21T06:48:54;35.10;;;30.13;;
9830;SDS011;4954;48.476;8.168;2024-02-21T06:51:22;38.80;;;30.70;;
9830;SDS011;4954;48.476;8.168;2024-02-21T06:53:49;37.10;;;29.90;;
9830;SDS011;4954;48.476;8.168;2024-02-21T06:56:17;42.50;;;31.87;;
9830;SDS011;4954;48.476;8.168;2024-02-21T06:58:44;44.83;;;31.47;;
9830;SDS011;4954;48.476;8.168;2024-02-21T07:01:11;32.07;;;28.63;;
9830;SDS011;4954;48.476;8.168;2024-02-21T07:03:39;35.90;;;29.83;;
9830;SDS011;4954;48.476;8.168;2024-02-21T07:06:06;35.27;;;29.37;;
9830;SDS011;4954;48.476;8.168;2024-02-21T07:08:33;31.87;;;28.67;;
9830;SDS011;4954;48.476;8.168;2024-02-21T07:11:00;36.33;;;30.20;;
9830;SDS011;4954;48.476;8.168;2024-02-21T07:13:27;38.90;;;30.83;;
9830;SDS011;4954;48.476;8.168;2024-02-21T07:15:54;33.57;;;29.63;;
9830;SDS011;4954;48.476;8.168;2024-02-21T07:18:21;41.23;;;31.80;;
9830;SDS011;4954;48.476;8.168;2024-02-21T07:20:50;36.17;;;31.10;;
9830;SDS011;4954;48.476;8.168;2024-02-21T07:23:18;35.33;;;30.43;;
9830;SDS011;4954;48.476;8.168;2024-02-21T07:25:45;34.20;;;29.13;;
9830;SDS011;4954;48.476;8.168;2024-02-21T07:28:12;40.53;;;32.10;;
9830;SDS011;4954;48.476;8.168;2024-02-21T07:30:39;39.13;;;31.97;;
9830;SDS011;4954;48.476;8.168;2024-02-21T07:33:06;36.03;;;29.53;;
9830;SDS011;4954;48.476;8.168;2024-02-21T07:35:33;37.27;;;30.50;;
9830;SDS011;4954;48.476;8.168;2024-02-21T07:38:04;42.83;;;31.37;;
9830;SDS011;4954;48.476;8.168;2024-02-21T07:40:31;40.37;;;33.17;;
9830;SDS011;4954;48.476;8.168;2024-02-21T07:42:59;37.10;;;31.53;;
9830;SDS011;4954;48.476;8.168;2024-02-21T07:45:26;42.57;;;31.77;;
9830;SDS011;4954;48.476;8.168;2024-02-21T07:47:52;45.57;;;34.47;;
9830;SDS011;4954;48.476;8.168;2024-02-21T07:50:19;43.43;;;34.13;;
9830;SDS011;4954;48.476;8.168;2024-02-21T07:52:46;48.40;;;35.33;;
9830;SDS011;4954;48.476;8.168;2024-02-21T07:55:14;38.57;;;32.47;;
9830;SDS011;4954;48.476;8.168;2024-02-21T07:57:42;39.97;;;31.00;;
9830;SDS011;4954;48.476;8.168;2024-02-21T08:00:09;36.37;;;30.80;;
9830;SDS011;4954;48.476;8.168;2024-02-21T08:02:42;33.13;;;29.77;;
9830;SDS011;4954;48.476;8.168;2024-02-21T08:05:09;32.93;;;29.57;;
9830;SDS011;4954;48.476;8.168;2024-02-21T08:07:37;33.97;;;30.13;;
9830;SDS011;4954;48.476;8.168;2024-02-21T08:10:04;41.57;;;32.50;;
9830;SDS011;4954;48.476;8.168;2024-02-21T08:12:34;42.50;;;32.00;;
9830;SDS011;4954;48.476;8.168;2024-02-21T08:15:02;33.33;;;29.80;;
9830;SDS011;4954;48.476;8.168;2024-02-21T08:17:30;37.10;;;31.33;;
9830;SDS011;4954;48.476;8.168;2024-02-21T08:19:57;41.70;;;31.70;;
9830;SDS011;4954;48.476;8.168;2024-02-21T08:22:24;45.90;;;33.43;;
9830;SDS011;4954;48.476;8.168;2024-02-21T08:24:51;44.07;;;33.13;;
9830;SDS011;4954;48.476;8.168;2024-02-21T08:27:18;39.03;;;31.63;;
9830;SDS011;4954;48.476;8.168;2024-02-21T08:29:46;35.50;;;30.87;;
9830;SDS011;4954;48.476;8.168;2024-02-21T08:32:13;42.97;;;31.47;;
9830;SDS011;4954;48.476;8.168;2024-02-21T08:34:40;37.20;;;31.47;;
9830;SDS011;4954;48.476;8.168;2024-02-21T08:37:07;40.70;;;31.20;;
9830;SDS011;4954;48.476;8.168;2024-02-21T08:39:35;42.17;;;32.33;;
9830;SDS011;4954;48.476;8.168;2024-02-21T08:42:02;36.70;;;31.03;;
9830;SDS011;4954;48.476;8.168;2024-02-21T08:44:30;39.43;;;31.73;;
9830;SDS011;4954;48.476;8.168;2024-02-21T08:46:58;33.53;;;29.93;;
9830;SDS011;4954;48.476;8.168;2024-02-21T08:49:28;37.70;;;31.37;;
9830;SDS011;4954;48.476;8.168;2024-02-21T08:51:56;33.27;;;29.87;;
9830;SDS011;4954;48.476;8.168;2024-02-21T08:54:23;46.53;;;33.33;;
9830;SDS011;4954;48.476;8.168;2024-02-21T08:56:50;44.30;;;33.15;;
9830;SDS011;4954;48.476;8.168;2024-02-21T08:59:17;40.10;;;31.70;;
9830;SDS011;4954;48.476;8.168;2024-02-21T09:01:44;41.72;;;32.17;;
9830;SDS011;4954;48.476;8.168;2024-02-21T09:04:12;53.03;;;34.97;;
9830;SDS011;4954;48.476;8.168;2024-02-21T09:06:39;40.30;;;32.70;;
9830;SDS011;4954;48.476;8.168;2024-02-21T09:09:07;42.10;;;33.50;;
9830;SDS011;4954;48.476;8.168;2024-02-21T09:11:35;44.08;;;34.13;;
9830;SDS011;4954;48.476;8.168;2024-02-21T09:14:02;45.53;;;34.83;;
9830;SDS011;4954;48.476;8.168;2024-02-21T09:16:30;43.97;;;35.80;;
9830;SDS011;4954;48.476;8.168;2024-02-21T09:18:58;43.95;;;35.60;;
9830;SDS011;4954;48.476;8.168;2024-02-21T09:21:27;44.55;;;36.10;;
9830;SDS011;4954;48.476;8.168;2024-02-21T09:23:54;41.95;;;35.67;;
9830;SDS011;4954;48.476;8.168;2024-02-21T09:26:21;47.42;;;36.42;;
9830;SDS011;4954;48.476;8.168;2024-02-21T09:28:47;43.83;;;36.10;;
9830;SDS011;4954;48.476;8.168;2024-02-21T09:31:14;48.70;;;38.83;;
9830;SDS011;4954;48.476;8.168;2024-02-21T09:33:41;45.97;;;37.20;;
9830;SDS011;4954;48.476;8.168;2024-02-21T09:36:08;50.13;;;39.00;;
9830;SDS011;4954;48.476;8.168;2024-02-21T09:38:39;50.00;;;38.33;;
9830;SDS011;4954;48.476;8.168;2024-02-21T09:41:08;49.47;;;38.53;;
9830;SDS011;4954;48.476;8.168;2024-02-21T09:43:43;47.63;;;38.97;;
9830;SDS011;4954;48.476;8.168;2024-02-21T09:46:13;49.30;;;38.25;;
9830;SDS011;4954;48.476;8.168;2024-02-21T09:48:49;49.47;;;38.58;;
9830;SDS011;4954;48.476;8.168;2024-02-21T09:51:35;70.15;;;42.15;;
9830;SDS011;4954;48.476;8.168;2024-02-21T09:54:08;53.40;;;38.75;;
9830;SDS011;4954;48.476;8.168;2024-02-21T09:56:35;43.40;;;36.55;;
9830;SDS011;4954;48.476;8.168;2024-02-21T09:59:02;41.92;;;35.53;;
9830;SDS011;4954;48.476;8.168;2024-02-21T10:01:31;50.35;;;37.03;;
9830;SDS011;4954;48.476;8.168;2024-02-21T10:03:58;59.42;;;38.05;;
9830;SDS011;4954;48.476;8.168;2024-02-21T10:06:25;41.45;;;35.63;;
9830;SDS011;4954;48.476;8.168;2024-02-21T10:08:52;48.60;;;40.63;;
9830;SDS011;4954;48.476;8.168;2024-02-21T10:11:23;50.20;;;39.30;;
9830;SDS011;4954;48.476;8.168;2024-02-21T10:13:50;48.13;;;40.90;;
9830;SDS011;4954;48.476;8.168;2024-02-21T10:16:17;52.00;;;41.03;;
9830;SDS011;4954;48.476;8.168;2024-02-21T10:18:44;51.88;;;40.40;;
9830;SDS011;4954;48.476;8.168;2024-02-21T10:21:11;42.17;;;36.97;;
9830;SDS011;4954;48.476;8.168;2024-02-21T10:23:41;52.78;;;38.80;;
9830;SDS011;4954;48.476;8.168;2024-02-21T10:26:10;41.05;;;36.47;;
9830;SDS011;4954;48.476;8.168;2024-02-21T10:28:38;36.53;;;32.92;;
9830;SDS011;4954;48.476;8.168;2024-02-21T10:31:07;38.03;;;33.85;;
9830;SDS011;4954;48.476;8.168;2024-02-21T10:33:36;37.53;;;33.55;;
9830;SDS011;4954;48.476;8.168;2024-02-21T10:36:07;40.15;;;34.13;;
9830;SDS011;4954;48.476;8.168;2024-02-21T10:38:36;39.53;;;34.13;;
9830;SDS011;4954;48.476;8.168;2024-02-21T10:41:04;40.38;;;34.00;;
9830;SDS011;4954;48.476;8.168;2024-02-21T10:43:33;35.78;;;32.30;;
9830;SDS011;4954;48.476;8.168;2024-02-21T10:46:06;43.30;;;34.92;;
9830;SDS011;4954;48.476;8.168;2024-02-21T10:48:38;38.80;;;33.55;;
9830;SDS011;4954;48.476;8.168;2024-02-21T10:51:14;41.65;;;34.40;;
9830;SDS011;4954;48.476;8.168;2024-02-21T10:53:45;37.90;;;33.65;;
9830;SDS011;4954;48.476;8.168;2024-02-21T10:56:25;37.45;;;33.47;;
9830;SDS011;4954;48.476;8.168;2024-02-21T10:58:57;38.28;;;34.08;;
9830;SDS011;4954;48.476;8.168;2024-02-21T11:01:27;37.83;;;33.85;;
9830;SDS011;4954;48.476;8.168;2024-02-21T11:03:57;38.92;;;34.65;;
9830;SDS011;4954;48.476;8.168;2024-02-21T11:06:28;37.95;;;34.00;;
9830;SDS011;4954;48.476;8.168;2024-02-21T11:09:04;37.55;;;33.63;;
9830;SDS011;4954;48.476;8.168;2024-02-21T11:11:33;38.63;;;34.53;;
9830;SDS011;4954;48.476;8.168;2024-02-21T11:14:05;38.30;;;34.30;;
9830;SDS011;4954;48.476;8.168;2024-02-21T11:16:36;41.05;;;35.42;;
9830;SDS011;4954;48.476;8.168;2024-02-21T11:19:05;40.78;;;36.42;;
9830;SDS011;4954;48.476;8.168;2024-02-21T11:21:34;38.72;;;34.65;;
9830;SDS011;4954;48.476;8.168;2024-02-21T11:24:02;37.97;;;34.10;;
9830;SDS011;4954;48.476;8.168;2024-02-21T11:26:29;39.08;;;34.83;;
9830;SDS011;4954;48.476;8.168;2024-02-21T11:28:59;41.30;;;34.97;;
9830;SDS011;4954;48.476;8.168;2024-02-21T11:31:37;37.53;;;33.83;;
9830;SDS011;4954;48.476;8.168;2024-02-21T11:34:08;38.53;;;34.53;;
9830;SDS011;4954;48.476;8.168;2024-02-21T11:36:45;37.63;;;33.72;;
9830;SDS011;4954;48.476;8.168;2024-02-21T11:39:21;38.50;;;34.42;;
9830;SDS011;4954;48.476;8.168;2024-02-21T11:44:41;38.08;;;34.13;;
9830;SDS011;4954;48.476;8.168;2024-02-21T11:47:10;38.88;;;34.65;;
9830;SDS011;4954;48.476;8.168;2024-02-21T11:49:37;44.35;;;35.97;;
9830;SDS011;4954;48.476;8.168;2024-02-21T11:52:05;52.92;;;37.40;;
9830;SDS011;4954;48.476;8.168;2024-02-21T11:54:33;38.47;;;34.38;;
9830;SDS011;4954;48.476;8.168;2024-02-21T11:57:00;51.35;;;36.30;;
9830;SDS011;4954;48.476;8.168;2024-02-21T11:59:29;43.17;;;35.13;;
9830;SDS011;4954;48.476;8.168;2024-02-21T12:02:00;51.35;;;35.38;;
9830;SDS011;4954;48.476;8.168;2024-02-21T12:04:30;36.95;;;33.05;;
9830;SDS011;4954;48.476;8.168;2024-02-21T12:07:00;37.53;;;33.33;;
9830;SDS011;4954;48.476;8.168;2024-02-21T12:09:28;41.40;;;34.42;;
9830;SDS011;4954;48.476;8.168;2024-02-21T12:11:59;50.35;;;37.00;;
9830;SDS011;4954;48.476;8.168;2024-02-21T12:14:28;52.47;;;37.03;;
9830;SDS011;4954;48.476;8.168;2024-02-21T12:16:56;49.33;;;36.05;;
9830;SDS011;4954;48.476;8.168;2024-02-21T12:19:23;39.80;;;34.05;;
9830;SDS011;4954;48.476;8.168;2024-02-21T12:21:52;52.60;;;36.53;;
9830;SDS011;4954;48.476;8.168;2024-02-21T12:24:23;73.55;;;40.30;;
9830;SDS011;4954;48.476;8.168;2024-02-21T12:26:51;53.88;;;36.97;;
9830;SDS011;4954;48.476;8.168;2024-02-21T12:29:19;43.15;;;34.40;;
9830;SDS011;4954;48.476;8.168;2024-02-21T12:31:46;39.55;;;33.83;;
9830;SDS011;4954;48.476;8.168;2024-02-21T12:34:14;55.13;;;36.92;;
9830;SDS011;4954;48.476;8.168;2024-02-21T12:36:41;39.10;;;33.63;;
9830;SDS011;4954;48.476;8.168;2024-02-21T12:39:11;42.55;;;34.17;;
9830;SDS011;4954;48.476;8.168;2024-02-21T12:41:38;55.58;;;36.85;;
9830;SDS011;4954;48.476;8.168;2024-02-21T12:44:05;41.20;;;34.00;;
9830;SDS011;4954;48.476;8.168;2024-02-21T12:46:33;42.85;;;34.45;;
9830;SDS011;4954;48.476;8.168;2024-02-21T12:49:00;59.35;;;37.58;;
9830;SDS011;4954;48.476;8.168;2024-02-21T12:51:27;51.60;;;36.17;;
9830;SDS011;4954;48.476;8.168;2024-02-21T12:53:54;43.63;;;34.80;;
9830;SDS011;4954;48.476;8.168;2024-02-21T12:56:23;37.08;;;33.25;;
9830;SDS011;4954;48.476;8.168;2024-02-21T12:58:51;37.17;;;32.92;;
9830;SDS011;4954;48.476;8.168;2024-02-21T13:01:18;57.47;;;37.38;;
9830;SDS011;4954;48.476;8.168;2024-02-21T13:03:45;59.20;;;36.88;;
9830;SDS011;4954;48.476;8.168;2024-02-21T13:06:12;46.28;;;34.97;;
9830;SDS011;4954;48.476;8.168;2024-02-21T13:08:39;46.50;;;35.15;;
9830;SDS011;4954;48.476;8.168;2024-02-21T13:11:07;39.95;;;33.67;;
9830;SDS011;4954;48.476;8.168;2024-02-21T13:13:35;51.03;;;36.38;;
9830;SDS011;4954;48.476;8.168;2024-02-21T13:16:02;45.38;;;34.95;;
9830;SDS011;4954;48.476;8.168;2024-02-21T13:18:29;36.45;;;32.60;;
9830;SDS011;4954;48.476;8.168;2024-02-21T13:20:57;40.47;;;33.63;;
9830;SDS011;4954;48.476;8.168;2024-02-21T13:23:24;42.85;;;34.42;;
9830;SDS011;4954;48.476;8.168;2024-02-21T13:25:51;42.75;;;34.67;;
9830;SDS011;4954;48.476;8.168;2024-02-21T13:28:18;50.92;;;35.88;;
9830;SDS011;4954;48.476;8.168;2024-02-21T13:30:46;44.88;;;34.65;;
9830;SDS011;4954;48.476;8.168;2024-02-21T13:33:13;39.55;;;33.45;;
9830;SDS011;4954;48.476;8.168;2024-02-21T13:35:40;46.17;;;35.13;;
9830;SDS011;4954;48.476;8.168;2024-02-21T13:38:07;38.85;;;33.03;;
9830;SDS011;4954;48.476;8.168;2024-02-21T13:40:35;45.33;;;34.38;;
9830;SDS011;4954;48.476;8.168;2024-02-21T13:43:02;38.33;;;32.80;;
9830;SDS011;4954;48.476;8.168;2024-02-21T13:45:29;42.10;;;33.08;;
9830;SDS011;4954;48.476;8.168;2024-02-21T13:47:58;40.38;;;33.38;;
9830;SDS011;4954;48.476;8.168;2024-02-21T13:50:29;47.63;;;34.88;;
9830;SDS011;4954;48.476;8.168;2024-02-21T13:52:57;46.03;;;34.50;;
9830;SDS011;4954;48.476;8.168;2024-02-21T13:55:24;101.13;;;65.28;;
9830;SDS011;4954;48.476;8.168;2024-02-21T13:57:54;36.03;;;32.33;;
9830;SDS011;4954;48.476;8.168;2024-02-21T14:00:22;42.05;;;33.75;;
9830;SDS011;4954;48.476;8.168;2024-02-21T14:02:49;44.78;;;34.50;;
9830;SDS011;4954;48.476;8.168;2024-02-21T14:05:17;39.78;;;33.50;;
9830;SDS011;4954;48.476;8.168;2024-02-21T14:07:44;40.63;;;33.85;;
9830;SDS011;4954;48.476;8.168;2024-02-21T14:10:11;39.63;;;33.50;;
9830;SDS011;4954;48.476;8.168;2024-02-21T14:12:38;40.28;;;33.70;;
9830;SDS011;4954;48.476;8.168;2024-02-21T14:15:05;44.58;;;34.25;;
9830;SDS011;4954;48.476;8.168;2024-02-21T14:17:34;35.88;;;32.10;;
9830;SDS011;4954;48.476;8.168;2024-02-21T14:20:01;38.65;;;34.42;;
9830;SDS011;4954;48.476;8.168;2024-02-21T14:22:29;39.72;;;33.80;;
9830;SDS011;4954;48.476;8.168;2024-02-21T14:24:56;44.53;;;36.83;;
9830;SDS011;4954;48.476;8.168;2024-02-21T14:27:23;61.85;;;42.15;;
9830;SDS011;4954;48.476;8.168;2024-02-21T14:29:50;54.03;;;42.42;;
9830;SDS011;4954;48.476;8.168;2024-02-21T14:32:18;42.63;;;34.72;;
9830;SDS011;4954;48.476;8.168;2024-02-21T14:34:45;40.05;;;33.70;;
9830;SDS011;4954;48.476;8.168;2024-02-21T14:37:12;39.35;;;33.55;;
9830;SDS011;4954;48.476;8.168;2024-02-21T14:39:41;45.60;;;35.55;;
9830;SDS011;4954;48.476;8.168;2024-02-21T14:42:08;60.63;;;43.15;;
9830;SDS011;4954;48.476;8.168;2024-02-21T14:44:35;46.78;;;35.55;;
9830;SDS011;4954;48.476;8.168;2024-02-21T14:47:02;43.88;;;34.42;;
9830;SDS011;4954;48.476;8.168;2024-02-21T14:49:29;40.75;;;33.33;;
9830;SDS011;4954;48.476;8.168;2024-02-21T14:51:56;45.40;;;34.30;;
9830;SDS011;4954;48.476;8.168;2024-02-21T14:54:23;40.92;;;33.28;;
9830;SDS011;4954;48.476;8.168;2024-02-21T14:56:52;35.85;;;32.08;;
9830;SDS011;4954;48.476;8.168;2024-02-21T14:59:20;49.30;;;35.55;;
9830;SDS011;4954;48.476;8.168;2024-02-21T15:01:47;42.53;;;33.58;;
9830;SDS011;4954;48.476;8.168;2024-02-21T15:04:14;54.45;;;35.78;;